This is the latest recevied weather packets stored in our database for station/object N2IC. If no packets are shown the sender has not sent any weather packets the latest 10 day(s).
| Time | Temp. | Humidity | Pressure | Rain* | Wind** | Luminosity | Snow |
|---|---|---|---|---|---|---|---|
| 1777501802 | 17.22° C | 14% | - | 0 mm | - | - | - |
| 1777491002 | 17.78° C | 17% | - | 0 mm | - | - | - |
| 1777482601 | 16.67° C | 18% | - | 0 mm | - | - | - |
| 1777482002 | 15.56° C | 21% | - | 0 mm | - | - | - |
| 1777481402 | 15.56° C | 22% | - | 0 mm | - | - | - |
| 1777480802 | 15° C | 22% | - | 0 mm | - | - | - |
| 1777477202 | 13.33° C | 24% | - | 0 mm | - | - | - |
| 1777473002 | 11.67° C | 25% | - | 0 mm | - | - | - |
| 1777470602 | 11.11° C | 24% | - | 0 mm | - | - | - |
| 1777470002 | 11.11° C | 24% | - | 0 mm | - | - | - |
| 1777467002 | 12.22° C | 23% | - | 0 mm | - | - | - |
| 1777465201 | 11.67° C | 23% | - | 0 mm | - | - | - |
| 1777464002 | 12.22° C | 23% | - | 0 mm | - | - | - |
| 1777462802 | 11.67° C | 23% | - | 0 mm | - | - | - |
| 1777434002 | 16.67° C | 20% | - | 0 mm | - | - | - |
| 1777432202 | 16.67° C | 20% | - | 0 mm | - | - | - |
| 1777431602 | 16.67° C | 19% | - | 0 mm | - | - | - |
| 1777431002 | 16.67° C | 19% | - | 0 mm | - | - | - |
| 1777429802 | 16.67° C | 19% | - | 0 mm | - | - | - |
| 1777426802 | 17.78° C | 18% | - | 0 mm | - | - | - |
| 1777425002 | 18.33° C | 17% | - | 0 mm | - | - | - |
| 1777422601 | 19.44° C | 16% | - | 0 mm | - | - | - |
| 1777407602 | 21.11° C | 12% | - | 0 mm | - | - | - |
| 1777406402 | 20.56° C | 12% | - | 0 mm | - | - | - |
| 1777405801 | 20° C | 13% | - | 0 mm | - | - | - |
* Rain latest 24 hours (hover to see other rain measurements)
** Current wind speed in m/s (hover to see current wind gust speed)